sensor_id;sensor_type;location;lat;lon;timestamp;P1;durP1;ratioP1;P2;durP2;ratioP2
19621;SDS011;9958;33.196;-97.114;2023-02-11T00:01:27;0.80;;;0.80;;
19621;SDS011;9958;33.196;-97.114;2023-02-11T00:03:56;0.88;;;0.88;;
19621;SDS011;9958;33.196;-97.114;2023-02-11T00:06:30;0.88;;;0.73;;
19621;SDS011;9958;33.196;-97.114;2023-02-11T00:08:59;0.55;;;0.55;;
19621;SDS011;9958;33.196;-97.114;2023-02-11T00:11:31;0.70;;;0.70;;
19621;SDS011;9958;33.196;-97.114;2023-02-11T00:14:01;1.40;;;1.30;;
19621;SDS011;9958;33.196;-97.114;2023-02-11T00:16:32;1.00;;;0.88;;
19621;SDS011;9958;33.196;-97.114;2023-02-11T00:19:01;0.68;;;0.68;;
19621;SDS011;9958;33.196;-97.114;2023-02-11T00:21:30;0.60;;;0.60;;
19621;SDS011;9958;33.196;-97.114;2023-02-11T00:24:02;0.70;;;0.70;;
19621;SDS011;9958;33.196;-97.114;2023-02-11T00:26:33;0.73;;;0.70;;
19621;SDS011;9958;33.196;-97.114;2023-02-11T00:29:02;0.60;;;0.60;;
19621;SDS011;9958;33.196;-97.114;2023-02-11T00:31:31;0.65;;;0.65;;
19621;SDS011;9958;33.196;-97.114;2023-02-11T00:34:00;0.70;;;0.68;;
19621;SDS011;9958;33.196;-97.114;2023-02-11T00:36:29;0.50;;;0.50;;
19621;SDS011;9958;33.196;-97.114;2023-02-11T00:38:57;1.13;;;0.60;;
19621;SDS011;9958;33.196;-97.114;2023-02-11T00:41:29;1.08;;;0.98;;
19621;SDS011;9958;33.196;-97.114;2023-02-11T00:43:59;0.93;;;0.73;;
19621;SDS011;9958;33.196;-97.114;2023-02-11T00:46:28;0.68;;;0.68;;
19621;SDS011;9958;33.196;-97.114;2023-02-11T00:48:56;0.77;;;0.77;;
19621;SDS011;9958;33.196;-97.114;2023-02-11T00:51:25;1.00;;;0.90;;
19621;SDS011;9958;33.196;-97.114;2023-02-11T00:53:54;0.57;;;0.57;;
19621;SDS011;9958;33.196;-97.114;2023-02-11T00:56:23;1.08;;;0.80;;
19621;SDS011;9958;33.196;-97.114;2023-02-11T00:58:51;0.63;;;0.63;;
19621;SDS011;9958;33.196;-97.114;2023-02-11T01:01:23;0.80;;;0.80;;
19621;SDS011;9958;33.196;-97.114;2023-02-11T01:03:51;1.42;;;0.88;;
19621;SDS011;9958;33.196;-97.114;2023-02-11T01:06:20;1.75;;;0.75;;
19621;SDS011;9958;33.196;-97.114;2023-02-11T01:08:49;1.10;;;1.02;;
19621;SDS011;9958;33.196;-97.114;2023-02-11T01:11:18;1.20;;;1.10;;
19621;SDS011;9958;33.196;-97.114;2023-02-11T01:13:49;0.75;;;0.75;;
19621;SDS011;9958;33.196;-97.114;2023-02-11T01:16:19;0.98;;;0.70;;
19621;SDS011;9958;33.196;-97.114;2023-02-11T01:18:49;0.70;;;0.70;;
19621;SDS011;9958;33.196;-97.114;2023-02-11T01:21:17;1.25;;;1.00;;
19621;SDS011;9958;33.196;-97.114;2023-02-11T01:23:46;1.20;;;1.00;;
19621;SDS011;9958;33.196;-97.114;2023-02-11T01:26:14;1.50;;;1.25;;
19621;SDS011;9958;33.196;-97.114;2023-02-11T01:28:43;2.15;;;1.30;;
19621;SDS011;9958;33.196;-97.114;2023-02-11T01:31:11;1.48;;;1.38;;
19621;SDS011;9958;33.196;-97.114;2023-02-11T01:33:40;1.20;;;1.15;;
19621;SDS011;9958;33.196;-97.114;2023-02-11T01:36:11;1.80;;;1.30;;
19621;SDS011;9958;33.196;-97.114;2023-02-11T01:38:39;1.92;;;1.73;;
19621;SDS011;9958;33.196;-97.114;2023-02-11T01:41:10;1.05;;;0.95;;
19621;SDS011;9958;33.196;-97.114;2023-02-11T01:43:40;1.88;;;1.42;;
19621;SDS011;9958;33.196;-97.114;2023-02-11T01:46:16;1.50;;;1.40;;
19621;SDS011;9958;33.196;-97.114;2023-02-11T01:48:54;1.50;;;1.35;;
19621;SDS011;9958;33.196;-97.114;2023-02-11T01:51:27;3.35;;;1.70;;
19621;SDS011;9958;33.196;-97.114;2023-02-11T01:54:00;1.38;;;1.23;;
19621;SDS011;9958;33.196;-97.114;2023-02-11T01:56:47;1.70;;;1.60;;
19621;SDS011;9958;33.196;-97.114;2023-02-11T01:59:37;2.05;;;1.55;;
19621;SDS011;9958;33.196;-97.114;2023-02-11T02:02:10;2.35;;;1.70;;
19621;SDS011;9958;33.196;-97.114;2023-02-11T02:04:43;3.47;;;1.60;;
19621;SDS011;9958;33.196;-97.114;2023-02-11T02:07:18;0.95;;;0.95;;
19621;SDS011;9958;33.196;-97.114;2023-02-11T02:09:59;3.83;;;1.77;;
19621;SDS011;9958;33.196;-97.114;2023-02-11T02:12:32;1.45;;;1.35;;
19621;SDS011;9958;33.196;-97.114;2023-02-11T02:15:23;1.60;;;1.17;;
19621;SDS011;9958;33.196;-97.114;2023-02-11T02:18:09;2.00;;;1.48;;
19621;SDS011;9958;33.196;-97.114;2023-02-11T02:26:53;1.48;;;1.10;;
19621;SDS011;9958;33.196;-97.114;2023-02-11T02:29:54;3.22;;;1.50;;
19621;SDS011;9958;33.196;-97.114;2023-02-11T02:35:42;1.50;;;1.40;;
19621;SDS011;9958;33.196;-97.114;2023-02-11T02:38:18;1.02;;;0.88;;
19621;SDS011;9958;33.196;-97.114;2023-02-11T02:40:52;1.90;;;1.55;;
19621;SDS011;9958;33.196;-97.114;2023-02-11T02:43:25;1.83;;;1.30;;
19621;SDS011;9958;33.196;-97.114;2023-02-11T02:45:55;2.40;;;1.67;;
19621;SDS011;9958;33.196;-97.114;2023-02-11T02:48:37;2.97;;;1.70;;
19621;SDS011;9958;33.196;-97.114;2023-02-11T02:51:07;2.08;;;1.77;;
19621;SDS011;9958;33.196;-97.114;2023-02-11T02:53:46;1.58;;;1.45;;
19621;SDS011;9958;33.196;-97.114;2023-02-11T02:56:24;2.67;;;1.85;;
19621;SDS011;9958;33.196;-97.114;2023-02-11T02:59:17;5.07;;;2.30;;
19621;SDS011;9958;33.196;-97.114;2023-02-11T03:01:59;4.05;;;2.10;;
19621;SDS011;9958;33.196;-97.114;2023-02-11T03:04:39;3.83;;;2.03;;
19621;SDS011;9958;33.196;-97.114;2023-02-11T03:07:16;2.42;;;1.88;;
19621;SDS011;9958;33.196;-97.114;2023-02-11T03:09:52;3.13;;;2.15;;
19621;SDS011;9958;33.196;-97.114;2023-02-11T03:12:25;3.67;;;2.67;;
19621;SDS011;9958;33.196;-97.114;2023-02-11T03:14:56;3.17;;;2.20;;
19621;SDS011;9958;33.196;-97.114;2023-02-11T03:17:30;2.83;;;1.73;;
19621;SDS011;9958;33.196;-97.114;2023-02-11T03:20:02;3.00;;;2.20;;
19621;SDS011;9958;33.196;-97.114;2023-02-11T03:22:36;3.33;;;2.50;;
19621;SDS011;9958;33.196;-97.114;2023-02-11T03:25:07;3.03;;;2.30;;
19621;SDS011;9958;33.196;-97.114;2023-02-11T03:27:37;2.22;;;2.03;;
19621;SDS011;9958;33.196;-97.114;2023-02-11T03:30:13;2.30;;;1.90;;
19621;SDS011;9958;33.196;-97.114;2023-02-11T03:32:46;2.65;;;1.77;;
19621;SDS011;9958;33.196;-97.114;2023-02-11T03:35:22;3.03;;;2.10;;
19621;SDS011;9958;33.196;-97.114;2023-02-11T03:37:54;3.03;;;1.75;;
19621;SDS011;9958;33.196;-97.114;2023-02-11T03:40:27;2.03;;;1.85;;
19621;SDS011;9958;33.196;-97.114;2023-02-11T03:43:00;1.10;;;1.10;;
19621;SDS011;9958;33.196;-97.114;2023-02-11T03:45:35;2.03;;;1.83;;
19621;SDS011;9958;33.196;-97.114;2023-02-11T03:48:05;1.67;;;1.48;;
19621;SDS011;9958;33.196;-97.114;2023-02-11T03:50:39;4.28;;;1.85;;
19621;SDS011;9958;33.196;-97.114;2023-02-11T03:53:09;3.05;;;1.73;;
19621;SDS011;9958;33.196;-97.114;2023-02-11T03:55:40;2.42;;;1.67;;
19621;SDS011;9958;33.196;-97.114;2023-02-11T03:58:10;1.92;;;1.58;;
19621;SDS011;9958;33.196;-97.114;2023-02-11T04:00:40;1.90;;;1.77;;
19621;SDS011;9958;33.196;-97.114;2023-02-11T04:03:10;2.28;;;1.63;;
19621;SDS011;9958;33.196;-97.114;2023-02-11T04:05:40;1.67;;;1.58;;
19621;SDS011;9958;33.196;-97.114;2023-02-11T04:08:09;2.45;;;1.80;;
19621;SDS011;9958;33.196;-97.114;2023-02-11T04:10:37;1.52;;;1.42;;
19621;SDS011;9958;33.196;-97.114;2023-02-11T04:13:06;2.42;;;1.90;;
19621;SDS011;9958;33.196;-97.114;2023-02-11T04:15:34;3.22;;;2.33;;
19621;SDS011;9958;33.196;-97.114;2023-02-11T04:18:03;2.80;;;1.95;;
19621;SDS011;9958;33.196;-97.114;2023-02-11T04:20:32;1.67;;;1.58;;
19621;SDS011;9958;33.196;-97.114;2023-02-11T04:23:02;2.45;;;2.20;;
19621;SDS011;9958;33.196;-97.114;2023-02-11T04:25:30;3.05;;;2.30;;
19621;SDS011;9958;33.196;-97.114;2023-02-11T04:27:59;2.83;;;2.20;;
19621;SDS011;9958;33.196;-97.114;2023-02-11T04:30:27;4.47;;;2.50;;
19621;SDS011;9958;33.196;-97.114;2023-02-11T04:32:57;6.35;;;3.75;;
19621;SDS011;9958;33.196;-97.114;2023-02-11T04:35:25;4.35;;;2.97;;
19621;SDS011;9958;33.196;-97.114;2023-02-11T04:37:54;6.75;;;5.13;;
19621;SDS011;9958;33.196;-97.114;2023-02-11T04:40:24;5.75;;;4.50;;
19621;SDS011;9958;33.196;-97.114;2023-02-11T04:42:52;10.45;;;5.65;;
19621;SDS011;9958;33.196;-97.114;2023-02-11T04:45:20;4.03;;;3.60;;
19621;SDS011;9958;33.196;-97.114;2023-02-11T04:47:49;7.95;;;4.68;;
19621;SDS011;9958;33.196;-97.114;2023-02-11T04:50:17;5.18;;;3.65;;
19621;SDS011;9958;33.196;-97.114;2023-02-11T04:52:46;9.57;;;3.88;;
19621;SDS011;9958;33.196;-97.114;2023-02-11T04:55:14;4.88;;;3.95;;
19621;SDS011;9958;33.196;-97.114;2023-02-11T04:57:44;5.53;;;4.03;;
19621;SDS011;9958;33.196;-97.114;2023-02-11T05:00:13;4.70;;;3.58;;
19621;SDS011;9958;33.196;-97.114;2023-02-11T05:02:42;5.63;;;3.50;;
19621;SDS011;9958;33.196;-97.114;2023-02-11T05:05:10;5.55;;;3.65;;
19621;SDS011;9958;33.196;-97.114;2023-02-11T05:07:39;5.28;;;3.17;;
19621;SDS011;9958;33.196;-97.114;2023-02-11T05:10:07;5.07;;;2.97;;
19621;SDS011;9958;33.196;-97.114;2023-02-11T05:12:36;3.90;;;2.88;;
19621;SDS011;9958;33.196;-97.114;2023-02-11T05:15:06;5.13;;;2.85;;
19621;SDS011;9958;33.196;-97.114;2023-02-11T05:17:35;4.90;;;3.10;;
19621;SDS011;9958;33.196;-97.114;2023-02-11T05:20:04;4.88;;;3.22;;
19621;SDS011;9958;33.196;-97.114;2023-02-11T05:22:33;6.28;;;2.83;;
19621;SDS011;9958;33.196;-97.114;2023-02-11T05:25:01;8.13;;;2.92;;
19621;SDS011;9958;33.196;-97.114;2023-02-11T05:27:29;5.05;;;3.65;;
19621;SDS011;9958;33.196;-97.114;2023-02-11T05:29:58;4.30;;;2.80;;
19621;SDS011;9958;33.196;-97.114;2023-02-11T05:32:28;4.45;;;2.90;;
19621;SDS011;9958;33.196;-97.114;2023-02-11T05:34:56;3.70;;;2.55;;
19621;SDS011;9958;33.196;-97.114;2023-02-11T05:37:25;3.92;;;3.15;;
19621;SDS011;9958;33.196;-97.114;2023-02-11T05:39:53;4.38;;;2.83;;
19621;SDS011;9958;33.196;-97.114;2023-02-11T05:42:21;4.57;;;2.85;;
19621;SDS011;9958;33.196;-97.114;2023-02-11T05:44:50;5.72;;;2.60;;
19621;SDS011;9958;33.196;-97.114;2023-02-11T05:47:18;6.22;;;3.20;;
19621;SDS011;9958;33.196;-97.114;2023-02-11T05:49:48;4.63;;;2.67;;
19621;SDS011;9958;33.196;-97.114;2023-02-11T05:52:17;6.72;;;2.50;;
19621;SDS011;9958;33.196;-97.114;2023-02-11T05:54:46;5.75;;;2.95;;
19621;SDS011;9958;33.196;-97.114;2023-02-11T05:57:14;3.17;;;2.67;;
19621;SDS011;9958;33.196;-97.114;2023-02-11T05:59:43;6.20;;;2.28;;
19621;SDS011;9958;33.196;-97.114;2023-02-11T06:02:11;2.38;;;2.10;;
19621;SDS011;9958;33.196;-97.114;2023-02-11T06:04:40;3.40;;;2.78;;
19621;SDS011;9958;33.196;-97.114;2023-02-11T06:07:10;2.42;;;1.83;;
19621;SDS011;9958;33.196;-97.114;2023-02-11T06:09:38;2.47;;;2.13;;
19621;SDS011;9958;33.196;-97.114;2023-02-11T06:12:07;2.03;;;1.38;;
19621;SDS011;9958;33.196;-97.114;2023-02-11T06:14:35;3.13;;;1.77;;
19621;SDS011;9958;33.196;-97.114;2023-02-11T06:17:03;2.20;;;1.67;;
19621;SDS011;9958;33.196;-97.114;2023-02-11T06:19:32;3.00;;;2.20;;
19621;SDS011;9958;33.196;-97.114;2023-02-11T06:22:00;3.22;;;2.47;;
19621;SDS011;9958;33.196;-97.114;2023-02-11T06:24:30;3.47;;;2.40;;
19621;SDS011;9958;33.196;-97.114;2023-02-11T06:26:59;5.43;;;2.28;;
19621;SDS011;9958;33.196;-97.114;2023-02-11T06:29:27;2.45;;;2.25;;
19621;SDS011;9958;33.196;-97.114;2023-02-11T06:31:55;2.92;;;1.92;;
19621;SDS011;9958;33.196;-97.114;2023-02-11T06:34:24;2.33;;;1.60;;
19621;SDS011;9958;33.196;-97.114;2023-02-11T06:36:52;2.22;;;1.65;;
19621;SDS011;9958;33.196;-97.114;2023-02-11T06:39:20;2.80;;;2.05;;
19621;SDS011;9958;33.196;-97.114;2023-02-11T06:41:50;3.53;;;1.83;;
19621;SDS011;9958;33.196;-97.114;2023-02-11T06:44:19;4.13;;;1.75;;
19621;SDS011;9958;33.196;-97.114;2023-02-11T06:46:47;2.83;;;2.17;;
19621;SDS011;9958;33.196;-97.114;2023-02-11T06:49:16;1.70;;;1.60;;
19621;SDS011;9958;33.196;-97.114;2023-02-11T06:51:44;3.92;;;1.90;;
19621;SDS011;9958;33.196;-97.114;2023-02-11T06:54:12;2.33;;;1.80;;
19621;SDS011;9958;33.196;-97.114;2023-02-11T06:56:41;3.00;;;2.20;;
19621;SDS011;9958;33.196;-97.114;2023-02-11T06:59:12;2.80;;;2.17;;
19621;SDS011;9958;33.196;-97.114;2023-02-11T07:01:42;3.10;;;2.75;;
19621;SDS011;9958;33.196;-97.114;2023-02-11T07:04:11;3.03;;;2.13;;
19621;SDS011;9958;33.196;-97.114;2023-02-11T07:06:39;4.88;;;2.55;;
19621;SDS011;9958;33.196;-97.114;2023-02-11T07:09:08;2.90;;;2.25;;
19621;SDS011;9958;33.196;-97.114;2023-02-11T07:11:36;3.92;;;2.55;;
19621;SDS011;9958;33.196;-97.114;2023-02-11T07:14:06;4.35;;;2.38;;
19621;SDS011;9958;33.196;-97.114;2023-02-11T07:16:36;3.25;;;2.35;;
19621;SDS011;9958;33.196;-97.114;2023-02-11T07:19:05;2.67;;;2.03;;
19621;SDS011;9958;33.196;-97.114;2023-02-11T07:21:33;2.60;;;2.30;;
19621;SDS011;9958;33.196;-97.114;2023-02-11T07:24:05;4.03;;;2.03;;
19621;SDS011;9958;33.196;-97.114;2023-02-11T07:26:34;5.60;;;2.47;;
19621;SDS011;9958;33.196;-97.114;2023-02-11T07:29:02;3.42;;;2.33;;
19621;SDS011;9958;33.196;-97.114;2023-02-11T07:31:31;4.00;;;2.40;;
19621;SDS011;9958;33.196;-97.114;2023-02-11T07:34:01;3.42;;;2.63;;
19621;SDS011;9958;33.196;-97.114;2023-02-11T07:36:30;3.17;;;2.10;;
19621;SDS011;9958;33.196;-97.114;2023-02-11T07:38:58;2.90;;;2.13;;
19621;SDS011;9958;33.196;-97.114;2023-02-11T07:41:27;3.95;;;2.50;;
19621;SDS011;9958;33.196;-97.114;2023-02-11T07:43:55;3.35;;;2.15;;
19621;SDS011;9958;33.196;-97.114;2023-02-11T07:46:24;3.75;;;2.83;;
19621;SDS011;9958;33.196;-97.114;2023-02-11T07:48:53;3.17;;;2.38;;
19621;SDS011;9958;33.196;-97.114;2023-02-11T07:51:25;3.15;;;1.88;;
19621;SDS011;9958;33.196;-97.114;2023-02-11T07:53:54;3.00;;;2.25;;
19621;SDS011;9958;33.196;-97.114;2023-02-11T07:56:25;3.83;;;2.28;;
19621;SDS011;9958;33.196;-97.114;2023-02-11T07:58:54;4.38;;;2.53;;
19621;SDS011;9958;33.196;-97.114;2023-02-11T08:01:24;4.57;;;2.53;;
19621;SDS011;9958;33.196;-97.114;2023-02-11T08:03:53;3.58;;;2.13;;
19621;SDS011;9958;33.196;-97.114;2023-02-11T08:06:22;3.80;;;2.17;;
19621;SDS011;9958;33.196;-97.114;2023-02-11T08:08:53;3.88;;;2.05;;
19621;SDS011;9958;33.196;-97.114;2023-02-11T08:11:22;2.70;;;2.30;;
19621;SDS011;9958;33.196;-97.114;2023-02-11T08:13:52;2.35;;;2.05;;
19621;SDS011;9958;33.196;-97.114;2023-02-11T08:16:22;2.60;;;1.95;;
19621;SDS011;9958;33.196;-97.114;2023-02-11T08:18:52;3.15;;;2.13;;
19621;SDS011;9958;33.196;-97.114;2023-02-11T08:21:22;3.53;;;2.53;;
19621;SDS011;9958;33.196;-97.114;2023-02-11T08:23:52;2.55;;;1.98;;
19621;SDS011;9958;33.196;-97.114;2023-02-11T08:26:22;5.18;;;2.45;;
19621;SDS011;9958;33.196;-97.114;2023-02-11T08:28:51;2.53;;;1.95;;
19621;SDS011;9958;33.196;-97.114;2023-02-11T08:31:22;3.90;;;2.38;;
19621;SDS011;9958;33.196;-97.114;2023-02-11T08:33:52;3.88;;;2.30;;
19621;SDS011;9958;33.196;-97.114;2023-02-11T08:36:23;3.30;;;1.88;;
19621;SDS011;9958;33.196;-97.114;2023-02-11T08:38:54;1.90;;;1.75;;
19621;SDS011;9958;33.196;-97.114;2023-02-11T08:41:24;2.70;;;1.88;;
19621;SDS011;9958;33.196;-97.114;2023-02-11T08:43:52;3.60;;;2.05;;
19621;SDS011;9958;33.196;-97.114;2023-02-11T08:46:21;3.08;;;2.15;;
19621;SDS011;9958;33.196;-97.114;2023-02-11T08:48:49;3.05;;;2.28;;
19621;SDS011;9958;33.196;-97.114;2023-02-11T08:51:19;2.65;;;1.63;;
19621;SDS011;9958;33.196;-97.114;2023-02-11T08:53:50;3.35;;;2.40;;
19621;SDS011;9958;33.196;-97.114;2023-02-11T08:56:20;2.53;;;1.65;;
19621;SDS011;9958;33.196;-97.114;2023-02-11T08:58:49;3.53;;;2.03;;
19621;SDS011;9958;33.196;-97.114;2023-02-11T09:01:19;3.45;;;2.05;;
19621;SDS011;9958;33.196;-97.114;2023-02-11T09:03:49;2.90;;;1.67;;
19621;SDS011;9958;33.196;-97.114;2023-02-11T09:06:17;3.00;;;2.10;;
19621;SDS011;9958;33.196;-97.114;2023-02-11T09:08:47;2.13;;;1.90;;
19621;SDS011;9958;33.196;-97.114;2023-02-11T09:11:19;3.72;;;2.30;;
19621;SDS011;9958;33.196;-97.114;2023-02-11T09:13:49;4.35;;;2.25;;
19621;SDS011;9958;33.196;-97.114;2023-02-11T09:16:18;2.78;;;1.92;;
19621;SDS011;9958;33.196;-97.114;2023-02-11T09:18:49;1.67;;;1.58;;
19621;SDS011;9958;33.196;-97.114;2023-02-11T09:21:18;2.60;;;1.70;;
19621;SDS011;9958;33.196;-97.114;2023-02-11T09:23:46;2.17;;;1.70;;
19621;SDS011;9958;33.196;-97.114;2023-02-11T09:26:16;3.05;;;2.13;;
19621;SDS011;9958;33.196;-97.114;2023-02-11T09:28:46;1.98;;;1.58;;
19621;SDS011;9958;33.196;-97.114;2023-02-11T09:31:16;2.65;;;1.95;;
19621;SDS011;9958;33.196;-97.114;2023-02-11T09:33:46;1.58;;;1.33;;
19621;SDS011;9958;33.196;-97.114;2023-02-11T09:36:16;3.88;;;2.05;;
19621;SDS011;9958;33.196;-97.114;2023-02-11T09:38:46;3.08;;;2.80;;
19621;SDS011;9958;33.196;-97.114;2023-02-11T09:41:29;2.33;;;1.90;;
19621;SDS011;9958;33.196;-97.114;2023-02-11T09:44:08;3.38;;;1.92;;
19621;SDS011;9958;33.196;-97.114;2023-02-11T09:46:44;2.20;;;1.85;;
19621;SDS011;9958;33.196;-97.114;2023-02-11T09:49:17;2.60;;;1.67;;
19621;SDS011;9958;33.196;-97.114;2023-02-11T09:51:49;2.60;;;1.95;;
19621;SDS011;9958;33.196;-97.114;2023-02-11T09:54:22;2.42;;;2.10;;
19621;SDS011;9958;33.196;-97.114;2023-02-11T09:56:56;2.28;;;1.65;;
19621;SDS011;9958;33.196;-97.114;2023-02-11T09:59:25;1.67;;;1.30;;
19621;SDS011;9958;33.196;-97.114;2023-02-11T10:01:54;3.08;;;2.30;;
19621;SDS011;9958;33.196;-97.114;2023-02-11T10:04:34;2.53;;;2.00;;
19621;SDS011;9958;33.196;-97.114;2023-02-11T10:07:16;4.53;;;2.35;;
19621;SDS011;9958;33.196;-97.114;2023-02-11T10:09:54;2.10;;;1.90;;
19621;SDS011;9958;33.196;-97.114;2023-02-11T10:12:37;2.67;;;2.05;;
19621;SDS011;9958;33.196;-97.114;2023-02-11T10:15:20;3.85;;;2.22;;
19621;SDS011;9958;33.196;-97.114;2023-02-11T10:18:03;2.88;;;2.20;;
19621;SDS011;9958;33.196;-97.114;2023-02-11T10:20:46;2.72;;;2.28;;
19621;SDS011;9958;33.196;-97.114;2023-02-11T10:23:21;3.33;;;2.63;;
19621;SDS011;9958;33.196;-97.114;2023-02-11T10:25:52;3.55;;;2.15;;
19621;SDS011;9958;33.196;-97.114;2023-02-11T10:28:28;2.63;;;2.42;;
19621;SDS011;9958;33.196;-97.114;2023-02-11T10:30:59;2.55;;;2.10;;
19621;SDS011;9958;33.196;-97.114;2023-02-11T10:33:30;3.25;;;2.10;;
19621;SDS011;9958;33.196;-97.114;2023-02-11T10:36:03;5.03;;;2.38;;
19621;SDS011;9958;33.196;-97.114;2023-02-11T10:38:32;3.33;;;2.22;;
19621;SDS011;9958;33.196;-97.114;2023-02-11T10:41:00;3.50;;;2.10;;
19621;SDS011;9958;33.196;-97.114;2023-02-11T10:43:31;4.97;;;2.83;;
19621;SDS011;9958;33.196;-97.114;2023-02-11T10:46:02;3.58;;;2.10;;
19621;SDS011;9958;33.196;-97.114;2023-02-11T10:48:37;3.33;;;2.70;;
19621;SDS011;9958;33.196;-97.114;2023-02-11T10:51:11;2.20;;;2.00;;
19621;SDS011;9958;33.196;-97.114;2023-02-11T10:53:48;3.00;;;2.20;;
19621;SDS011;9958;33.196;-97.114;2023-02-11T10:56:25;2.88;;;1.95;;
19621;SDS011;9958;33.196;-97.114;2023-02-11T10:58:56;1.85;;;1.70;;
19621;SDS011;9958;33.196;-97.114;2023-02-11T11:01:39;4.78;;;2.72;;
19621;SDS011;9958;33.196;-97.114;2023-02-11T11:04:25;2.90;;;2.22;;
19621;SDS011;9958;33.196;-97.114;2023-02-11T11:09:47;3.28;;;2.15;;
19621;SDS011;9958;33.196;-97.114;2023-02-11T11:12:32;2.92;;;2.17;;
19621;SDS011;9958;33.196;-97.114;2023-02-11T11:15:19;2.90;;;2.20;;
19621;SDS011;9958;33.196;-97.114;2023-02-11T11:17:49;3.08;;;1.98;;
19621;SDS011;9958;33.196;-97.114;2023-02-11T11:20:35;1.80;;;1.40;;
19621;SDS011;9958;33.196;-97.114;2023-02-11T11:23:08;4.38;;;2.25;;
19621;SDS011;9958;33.196;-97.114;2023-02-11T11:25:43;4.45;;;2.75;;
19621;SDS011;9958;33.196;-97.114;2023-02-11T11:28:24;3.78;;;2.42;;
19621;SDS011;9958;33.196;-97.114;2023-02-11T11:30:56;3.03;;;1.92;;
19621;SDS011;9958;33.196;-97.114;2023-02-11T11:33:27;2.58;;;2.30;;
19621;SDS011;9958;33.196;-97.114;2023-02-11T11:36:01;2.67;;;1.63;;
19621;SDS011;9958;33.196;-97.114;2023-02-11T11:38:35;3.25;;;2.40;;
19621;SDS011;9958;33.196;-97.114;2023-02-11T11:41:17;4.22;;;1.90;;
19621;SDS011;9958;33.196;-97.114;2023-02-11T11:43:58;4.45;;;2.70;;
19621;SDS011;9958;33.196;-97.114;2023-02-11T11:46:31;3.45;;;2.15;;
19621;SDS011;9958;33.196;-97.114;2023-02-11T11:49:06;7.57;;;2.67;;
19621;SDS011;9958;33.196;-97.114;2023-02-11T11:51:44;3.40;;;2.25;;
19621;SDS011;9958;33.196;-97.114;2023-02-11T11:54:20;2.95;;;2.10;;
19621;SDS011;9958;33.196;-97.114;2023-02-11T11:56:53;3.33;;;2.15;;
19621;SDS011;9958;33.196;-97.114;2023-02-11T11:59:26;2.80;;;2.10;;
19621;SDS011;9958;33.196;-97.114;2023-02-11T12:02:00;4.07;;;2.50;;
19621;SDS011;9958;33.196;-97.114;2023-02-11T12:04:51;4.03;;;2.05;;
19621;SDS011;9958;33.196;-97.114;2023-02-11T12:07:34;2.47;;;2.28;;
19621;SDS011;9958;33.196;-97.114;2023-02-11T12:13:19;3.35;;;2.10;;
19621;SDS011;9958;33.196;-97.114;2023-02-11T12:15:59;2.53;;;2.10;;
19621;SDS011;9958;33.196;-97.114;2023-02-11T12:18:42;3.92;;;2.30;;
19621;SDS011;9958;33.196;-97.114;2023-02-11T12:21:28;4.72;;;3.10;;
19621;SDS011;9958;33.196;-97.114;2023-02-11T12:24:06;2.35;;;2.00;;
19621;SDS011;9958;33.196;-97.114;2023-02-11T12:26:44;1.45;;;1.35;;
19621;SDS011;9958;33.196;-97.114;2023-02-11T12:29:21;2.67;;;2.15;;
19621;SDS011;9958;33.196;-97.114;2023-02-11T12:32:00;2.33;;;1.80;;
19621;SDS011;9958;33.196;-97.114;2023-02-11T12:34:44;3.90;;;2.25;;
19621;SDS011;9958;33.196;-97.114;2023-02-11T12:37:27;3.28;;;2.13;;
19621;SDS011;9958;33.196;-97.114;2023-02-11T12:40:10;2.95;;;1.75;;
19621;SDS011;9958;33.196;-97.114;2023-02-11T12:42:56;2.80;;;2.13;;
19621;SDS011;9958;33.196;-97.114;2023-02-11T12:48:46;3.97;;;2.05;;
19621;SDS011;9958;33.196;-97.114;2023-02-11T12:51:34;3.45;;;2.13;;
19621;SDS011;9958;33.196;-97.114;2023-02-11T12:54:19;2.15;;;1.80;;
19621;SDS011;9958;33.196;-97.114;2023-02-11T12:56:56;3.90;;;2.22;;
19621;SDS011;9958;33.196;-97.114;2023-02-11T12:59:46;2.10;;;1.52;;
19621;SDS011;9958;33.196;-97.114;2023-02-11T13:02:23;3.95;;;2.58;;
19621;SDS011;9958;33.196;-97.114;2023-02-11T13:05:00;3.53;;;1.67;;
19621;SDS011;9958;33.196;-97.114;2023-02-11T13:07:38;2.63;;;1.92;;
19621;SDS011;9958;33.196;-97.114;2023-02-11T13:10:17;3.88;;;2.20;;
19621;SDS011;9958;33.196;-97.114;2023-02-11T13:12:51;1.98;;;1.80;;
19621;SDS011;9958;33.196;-97.114;2023-02-11T13:15:39;3.28;;;1.80;;
19621;SDS011;9958;33.196;-97.114;2023-02-11T13:18:14;4.88;;;2.08;;
19621;SDS011;9958;33.196;-97.114;2023-02-11T13:20:52;2.78;;;1.60;;
19621;SDS011;9958;33.196;-97.114;2023-02-11T13:23:29;2.88;;;2.15;;
19621;SDS011;9958;33.196;-97.114;2023-02-11T13:26:04;1.73;;;1.33;;
19621;SDS011;9958;33.196;-97.114;2023-02-11T13:28:44;2.75;;;2.00;;
19621;SDS011;9958;33.196;-97.114;2023-02-11T13:31:18;4.57;;;2.58;;
19621;SDS011;9958;33.196;-97.114;2023-02-11T13:33:51;2.25;;;1.42;;
19621;SDS011;9958;33.196;-97.114;2023-02-11T13:36:22;3.80;;;2.28;;
19621;SDS011;9958;33.196;-97.114;2023-02-11T13:38:58;2.30;;;2.10;;
19621;SDS011;9958;33.196;-97.114;2023-02-11T13:41:29;4.70;;;2.40;;
19621;SDS011;9958;33.196;-97.114;2023-02-11T13:44:00;2.72;;;2.25;;
19621;SDS011;9958;33.196;-97.114;2023-02-11T13:49:25;2.92;;;2.05;;
19621;SDS011;9958;33.196;-97.114;2023-02-11T13:52:00;4.18;;;2.47;;
19621;SDS011;9958;33.196;-97.114;2023-02-11T13:54:36;4.57;;;2.60;;
19621;SDS011;9958;33.196;-97.114;2023-02-11T13:57:21;2.80;;;2.20;;
19621;SDS011;9958;33.196;-97.114;2023-02-11T13:59:59;2.03;;;1.55;;
19621;SDS011;9958;33.196;-97.114;2023-02-11T14:02:31;2.65;;;2.13;;
19621;SDS011;9958;33.196;-97.114;2023-02-11T14:05:29;3.22;;;2.33;;
19621;SDS011;9958;33.196;-97.114;2023-02-11T14:08:19;3.70;;;2.10;;
19621;SDS011;9958;33.196;-97.114;2023-02-11T14:14:24;3.40;;;2.53;;
19621;SDS011;9958;33.196;-97.114;2023-02-11T14:19:58;3.38;;;2.65;;
19621;SDS011;9958;33.196;-97.114;2023-02-11T14:22:48;2.30;;;2.10;;
19621;SDS011;9958;33.196;-97.114;2023-02-11T14:25:20;6.60;;;2.55;;
19621;SDS011;9958;33.196;-97.114;2023-02-11T14:27:52;5.70;;;3.28;;
19621;SDS011;9958;33.196;-97.114;2023-02-11T14:30:36;4.57;;;2.83;;
19621;SDS011;9958;33.196;-97.114;2023-02-11T14:33:19;3.72;;;2.35;;
19621;SDS011;9958;33.196;-97.114;2023-02-11T14:36:04;3.13;;;2.72;;
19621;SDS011;9958;33.196;-97.114;2023-02-11T14:38:43;3.55;;;2.45;;
19621;SDS011;9958;33.196;-97.114;2023-02-11T14:41:23;4.57;;;3.50;;
19621;SDS011;9958;33.196;-97.114;2023-02-11T14:43:53;3.03;;;2.50;;
19621;SDS011;9958;33.196;-97.114;2023-02-11T14:46:28;5.13;;;3.00;;
19621;SDS011;9958;33.196;-97.114;2023-02-11T14:48:59;7.18;;;3.22;;
19621;SDS011;9958;33.196;-97.114;2023-02-11T14:51:29;4.40;;;3.05;;
19621;SDS011;9958;33.196;-97.114;2023-02-11T14:54:02;4.60;;;2.72;;
19621;SDS011;9958;33.196;-97.114;2023-02-11T14:56:37;5.10;;;2.70;;
19621;SDS011;9958;33.196;-97.114;2023-02-11T14:59:12;4.13;;;2.97;;
19621;SDS011;9958;33.196;-97.114;2023-02-11T15:01:47;6.05;;;2.72;;
19621;SDS011;9958;33.196;-97.114;2023-02-11T15:04:22;5.03;;;2.83;;
19621;SDS011;9958;33.196;-97.114;2023-02-11T15:06:51;3.30;;;2.30;;
19621;SDS011;9958;33.196;-97.114;2023-02-11T15:09:22;3.63;;;2.95;;
19621;SDS011;9958;33.196;-97.114;2023-02-11T15:11:54;3.83;;;2.45;;
19621;SDS011;9958;33.196;-97.114;2023-02-11T15:14:25;4.72;;;3.03;;
19621;SDS011;9958;33.196;-97.114;2023-02-11T15:16:57;3.67;;;2.67;;
19621;SDS011;9958;33.196;-97.114;2023-02-11T15:19:27;4.68;;;2.78;;
19621;SDS011;9958;33.196;-97.114;2023-02-11T15:21:57;4.78;;;3.00;;
19621;SDS011;9958;33.196;-97.114;2023-02-11T15:24:27;5.35;;;3.10;;
19621;SDS011;9958;33.196;-97.114;2023-02-11T15:27:00;4.38;;;3.15;;
19621;SDS011;9958;33.196;-97.114;2023-02-11T15:29:34;5.72;;;3.00;;
19621;SDS011;9958;33.196;-97.114;2023-02-11T15:32:06;5.20;;;2.95;;
19621;SDS011;9958;33.196;-97.114;2023-02-11T15:34:39;5.18;;;3.33;;